Time;durP1;ratioP1;P1;durP2;ratioP2;P2;SDS_P1;SDS_P2;PMS_P1;PMS_P2;Temp;Humidity;BMP_temperature;BMP_pressure;BME280_temperature;BME280_humidity;BME280_pressure;Samples;Min_cycle;Max_cycle;Signal;HPM_P1;HPM_P2
2021/01/02 04:35:49;;;;;;;;;;;;;;;;;;;;;
2021/01/02 05:12:48;;;;;;;;;;;;;;;;;;;;;
2021/01/02 05:29:37;;;;;;;;;;;;;;;;;;;;;
2021/01/02 10:45:39;;;;;;;16.88;12.88;;;3.60;99.90;;;;;;5879424;24;20213;-83
2021/01/02 12:30:00;;;;;;;;;;;;;;;;;;;;;
2021/01/02 13:13:18;;;;;;;16.55;13.50;;;3.50;99.90;;;;;;6221084;22;20212;-82
2021/01/02 13:18:45;;;;;;;17.17;13.25;;;3.60;99.90;;;;;;6166628;23;20208;-84
2021/01/02 13:21:20;;;;;;;19.70;14.23;;;3.60;99.90;;;;;;6158817;23;20184;-85
2021/01/02 13:23:56;;;;;;;14.63;11.50;;;3.50;99.90;;;;;;6222405;23;20173;-85
2021/01/02 13:26:23;;;;;;;18.48;12.27;;;3.50;99.90;;;;;;6226420;23;20206;-82
2021/01/02 13:28:50;;;;;;;22.73;15.13;;;3.40;99.90;;;;;;6227249;23;20182;-82
2021/01/02 13:31:16;;;;;;;20.65;14.15;;;3.40;99.90;;;;;;6230427;23;20176;-81
2021/01/02 13:33:43;;;;;;;16.88;14.35;;;3.30;99.90;;;;;;6232107;23;20213;-84
2021/01/02 13:36:09;;;;;;;18.83;14.40;;;3.50;99.90;;;;;;6229965;23;20258;-84
2021/01/02 13:38:36;;;;;;;18.02;14.52;;;3.50;99.90;;;;;;6230942;23;20182;-85
2021/01/02 13:41:04;;;;;;;15.52;12.82;;;3.40;99.90;;;;;;6231221;23;20182;-82
2021/01/02 13:43:30;;;;;;;18.73;13.45;;;3.50;99.90;;;;;;6232391;23;20269;-83
2021/01/02 13:46:00;;;;;;;18.10;13.32;;;3.50;99.90;;;;;;6234400;23;20209;-81
2021/01/02 13:48:26;;;;;;;17.70;12.50;;;3.40;99.90;;;;;;6233716;23;20209;-83
2021/01/02 13:50:52;;;;;;;17.00;13.93;;;3.50;99.90;;;;;;6229760;23;20209;-83
2021/01/02 13:53:18;;;;;;;16.85;13.23;;;3.50;99.90;;;;;;6231214;23;20808;-82
2021/01/02 13:55:45;;;;;;;16.85;12.85;;;3.30;99.90;;;;;;6232343;23;20180;-80
2021/01/02 13:58:11;;;;;;;18.65;13.43;;;3.40;99.90;;;;;;6231808;23;20210;-82
2021/01/02 14:00:37;;;;;;;20.25;15.07;;;3.50;99.90;;;;;;6229685;23;20188;-82
2021/01/02 14:03:04;;;;;;;16.33;14.13;;;3.50;99.90;;;;;;6225250;23;20233;-83
2021/01/02 14:05:30;;;;;;;20.63;14.98;;;3.50;99.90;;;;;;6224866;23;20589;-82
2021/01/02 14:07:57;;;;;;;16.27;12.93;;;3.50;99.90;;;;;;6223799;23;20210;-82
2021/01/02 14:10:24;;;;;;;15.00;11.85;;;3.50;99.90;;;;;;6223797;23;20186;-83
2021/01/02 14:12:51;;;;;;;17.42;13.23;;;3.50;99.90;;;;;;6223181;23;20189;-83
2021/01/02 14:15:18;;;;;;;15.70;12.23;;;3.50;99.90;;;;;;6223933;23;20649;-83
2021/01/02 14:17:44;;;;;;;15.50;10.32;;;3.50;99.90;;;;;;6224047;23;20202;-84
2021/01/02 14:20:12;;;;;;;18.30;12.90;;;3.50;99.90;;;;;;6224500;23;20210;-84
2021/01/02 14:22:39;;;;;;;14.15;12.60;;;3.40;99.90;;;;;;6223580;23;20185;-83
2021/01/02 14:25:10;;;;;;;16.45;10.43;;;3.50;99.90;;;;;;6223686;23;20202;-83
2021/01/02 14:27:36;;;;;;;16.88;11.18;;;3.30;99.90;;;;;;6223855;23;20225;-83
2021/01/02 14:30:04;;;;;;;11.55;10.25;;;3.40;99.90;;;;;;6222799;23;20259;-83
2021/01/02 14:32:32;;;;;;;11.80;10.55;;;3.40;99.90;;;;;;6222136;23;20182;-83
2021/01/02 14:34:58;;;;;;;17.08;12.10;;;3.20;99.90;;;;;;6222755;23;20174;-85
2021/01/02 14:37:29;;;;;;;14.27;10.82;;;3.30;99.90;;;;;;6222221;23;20202;-85
2021/01/02 14:39:57;;;;;;;14.23;11.13;;;3.20;99.90;;;;;;6222493;23;20307;-85
2021/01/02 14:42:23;;;;;;;12.02;9.73;;;3.30;99.90;;;;;;6223491;23;20190;-85
2021/01/02 14:44:50;;;;;;;12.40;11.00;;;3.30;99.90;;;;;;6223142;23;20183;-84
2021/01/02 14:47:16;;;;;;;14.27;10.05;;;3.30;99.90;;;;;;6222236;23;20202;-84
2021/01/02 14:49:43;;;;;;;12.43;9.70;;;3.30;99.90;;;;;;6223314;23;20191;-86
2021/01/02 14:52:17;;;;;;;12.07;8.80;;;3.30;99.90;;;;;;6224739;23;20234;-85
2021/01/02 14:55:10;;;;;;;14.10;9.43;;;3.40;99.90;;;;;;6225077;23;20644;-83
2021/01/02 14:58:08;;;;;;;10.98;9.55;;;3.30;99.90;;;;;;6206019;23;20202;-83
2021/01/02 15:00:52;;;;;;;10.00;8.52;;;3.30;99.90;;;;;;6240543;23;20162;-82
2021/01/02 15:03:24;;;;;;;8.75;7.85;;;3.30;99.90;;;;;;6238552;23;20222;-82
2021/01/02 15:05:55;;;;;;;11.73;10.30;;;3.30;99.90;;;;;;6239973;23;20186;-82
2021/01/02 15:08:25;;;;;;;11.20;8.10;;;3.20;99.90;;;;;;6239755;23;20194;-82
2021/01/02 15:10:57;;;;;;;9.45;8.07;;;3.20;99.90;;;;;;6239821;23;20178;-82
2021/01/02 15:17:30;;;;;;;;;;;;;;;;;;;;;
2021/01/02 15:26:31;;;;;;;12.27;10.82;;;3.40;99.90;;;;;;6006707;23;20285;-81
2021/01/02 15:29:06;;;;;;;13.70;10.93;;;3.40;99.90;;;;;;6220065;23;20159;-81
2021/01/02 15:32:16;;;;;;;11.90;9.30;;;3.40;99.90;;;;;;6220258;23;20196;-81
2021/01/02 15:35:31;;;;;;;;;;;;;;;;;;;;;
2021/01/02 15:37:59;;;;;;;11.18;9.07;;;3.20;99.90;;;;;;6067970;23;20281;-81
2021/01/02 15:40:38;;;;;;;9.70;8.75;;;3.20;99.90;;;;;;6193590;23;20269;-81
2021/01/02 15:43:39;;;;;;;11.18;10.02;;;3.20;99.90;;;;;;6221309;23;20181;-83
2021/01/02 15:46:23;;;;;;;17.42;9.63;;;3.20;99.90;;;;;;6078370;23;20266;-82
2021/01/02 15:49:21;;;;;;;11.45;9.77;;;3.20;99.90;;;;;;6222986;23;20170;-82
2021/01/02 15:52:26;;;;;;;;;;;;;;;;;;;;;
2021/01/02 15:55:01;;;;;;;11.25;10.07;;;3.20;99.90;;;;;;6215817;23;20276;-83
2021/01/02 16:00:25;;;;;;;10.93;9.32;;;3.20;99.90;;;;;;6218560;23;20226;-82
2021/01/02 16:03:06;;;;;;;11.60;9.32;;;3.10;99.90;;;;;;6222618;23;20171;-83
2021/01/02 16:05:46;;;;;;;12.82;10.02;;;3.10;99.90;;;;;;6222291;23;20217;-82
2021/01/02 16:08:42;;;;;;;;;;;;;;;;;;;;;
2021/01/02 16:14:31;;;;;;;12.48;9.85;;;2.90;99.90;;;;;;6026087;23;20184;-84
2021/01/02 16:26:37;;;;;;;12.65;10.80;;;2.90;99.90;;;;;;6090751;23;20201;-84
2021/01/02 16:29:10;;;;;;;12.00;9.93;;;2.80;99.90;;;;;;6085663;23;20185;-83
2021/01/02 16:31:50;;;;;;;13.82;11.05;;;2.70;99.90;;;;;;6224221;23;20166;-83
2021/01/02 16:34:18;;;;;;;11.00;9.52;;;2.80;99.90;;;;;;6221767;23;20158;-83
2021/01/02 16:36:45;;;;;;;12.48;10.50;;;2.80;99.90;;;;;;6222127;23;20198;-83
2021/01/02 16:39:12;;;;;;;11.43;10.23;;;2.80;99.90;;;;;;6223221;23;20182;-84
2021/01/02 16:41:38;;;;;;;15.68;10.15;;;2.70;99.90;;;;;;6222534;23;20182;-82
2021/01/02 16:44:05;;;;;;;12.70;10.48;;;2.80;99.90;;;;;;6221489;23;20177;-82
2021/01/02 16:46:32;;;;;;;11.55;10.38;;;2.80;99.90;;;;;;6221293;23;20224;-83
2021/01/02 16:49:00;;;;;;;15.52;12.23;;;2.80;99.90;;;;;;6225992;23;20190;-82
2021/01/02 16:51:28;;;;;;;13.40;9.60;;;2.90;99.90;;;;;;6233749;23;20202;-80
2021/01/02 16:53:55;;;;;;;10.70;9.73;;;2.80;99.90;;;;;;6230077;23;20182;-82
2021/01/02 16:56:26;;;;;;;13.32;11.40;;;2.90;99.90;;;;;;6226759;23;20178;-83
2021/01/02 16:58:53;;;;;;;11.88;10.13;;;2.90;99.90;;;;;;6226261;23;20162;-80
2021/01/02 17:01:19;;;;;;;12.95;9.80;;;3.00;99.90;;;;;;6225596;23;20167;-80
2021/01/02 17:03:49;;;;;;;13.02;9.80;;;3.00;99.90;;;;;;6226315;23;20221;-82
2021/01/02 17:06:24;;;;;;;14.30;12.98;;;3.00;99.90;;;;;;6224461;23;20201;-82
2021/01/02 17:08:51;;;;;;;12.15;10.43;;;3.00;99.90;;;;;;6224003;23;20173;-83
2021/01/02 17:11:25;;;;;;;10.93;9.25;;;3.00;99.90;;;;;;6224001;23;20178;-83
2021/01/02 17:13:53;;;;;;;12.05;8.77;;;3.10;99.90;;;;;;6223382;23;20244;-82
2021/01/02 17:16:25;;;;;;;10.50;9.30;;;3.10;99.90;;;;;;6225955;23;20479;-82
2021/01/02 17:18:52;;;;;;;16.02;11.30;;;3.00;99.90;;;;;;6223771;23;20178;-82
2021/01/02 17:21:22;;;;;;;11.85;10.63;;;3.00;99.90;;;;;;6222902;23;20182;-82
2021/01/02 17:23:48;;;;;;;17.35;14.75;;;3.00;99.90;;;;;;6223443;23;20181;-82
2021/01/02 17:26:20;;;;;;;14.05;11.00;;;3.00;99.90;;;;;;6226103;23;20206;-82
2021/01/02 17:28:48;;;;;;;13.07;11.23;;;3.10;99.90;;;;;;6226336;23;20166;-83
2021/01/02 17:31:15;;;;;;;16.10;13.40;;;3.10;99.90;;;;;;6225475;23;20182;-83
2021/01/02 17:33:41;;;;;;;14.80;11.95;;;3.10;99.90;;;;;;6225760;23;20178;-82
2021/01/02 17:36:07;;;;;;;29.52;25.65;;;3.20;99.90;;;;;;6225011;23;20178;-81
2021/01/02 17:38:34;;;;;;;20.00;17.98;;;3.20;99.90;;;;;;6225202;23;20182;-83
2021/01/02 17:41:06;;;;;;;12.40;10.15;;;3.20;99.90;;;;;;6223919;23;20181;-82
2021/01/02 17:43:32;;;;;;;12.35;10.63;;;3.20;99.90;;;;;;6222874;23;20169;-81
2021/01/02 17:45:59;;;;;;;12.38;11.07;;;3.30;99.90;;;;;;6220771;23;20200;-82
2021/01/02 17:48:26;;;;;;;13.38;10.50;;;3.30;99.90;;;;;;6221152;23;20281;-82
2021/01/02 17:50:54;;;;;;;12.10;10.75;;;3.30;99.90;;;;;;6220505;23;20192;-82
2021/01/02 17:53:21;;;;;;;9.40;8.40;;;3.30;99.90;;;;;;6221666;23;20200;-81
2021/01/02 17:55:48;;;;;;;12.10;10.02;;;3.30;99.90;;;;;;6223712;23;20177;-82
2021/01/02 17:58:14;;;;;;;12.85;11.48;;;3.30;99.90;;;;;;6226855;23;20246;-82
2021/01/02 18:00:40;;;;;;;12.20;10.30;;;3.30;99.90;;;;;;6226164;23;20201;-82
2021/01/02 18:03:06;;;;;;;14.10;9.75;;;3.30;99.90;;;;;;6224284;23;20167;-82
2021/01/02 18:05:32;;;;;;;11.18;10.00;;;3.30;99.90;;;;;;6229879;23;20208;-81
2021/01/02 18:07:59;;;;;;;12.07;9.65;;;3.30;99.90;;;;;;6230886;23;20228;-81
2021/01/02 18:10:25;;;;;;;12.93;10.60;;;3.30;99.90;;;;;;6230291;23;20184;-80
2021/01/02 18:12:52;;;;;;;11.93;10.23;;;3.30;99.90;;;;;;6230872;23;20189;-81
2021/01/02 18:15:20;;;;;;;16.58;11.55;;;3.30;99.90;;;;;;6232535;23;20181;-81
2021/01/02 18:17:46;;;;;;;14.60;11.20;;;3.30;99.90;;;;;;6233134;23;20202;-80
2021/01/02 18:20:14;;;;;;;12.02;10.35;;;3.30;99.90;;;;;;6233186;23;20181;-81
2021/01/02 18:22:40;;;;;;;13.85;11.73;;;3.30;99.90;;;;;;6230401;23;20182;-83
2021/01/02 18:25:07;;;;;;;18.27;16.13;;;3.30;99.90;;;;;;6226413;23;20401;-81
2021/01/02 18:27:34;;;;;;;17.13;13.82;;;3.40;99.90;;;;;;6228698;23;20248;-80
2021/01/02 18:30:01;;;;;;;14.55;11.70;;;3.40;99.90;;;;;;6227192;23;20182;-80
2021/01/02 18:32:27;;;;;;;13.30;10.57;;;3.50;99.90;;;;;;6228163;23;20193;-81
2021/01/02 18:34:53;;;;;;;13.90;11.13;;;3.50;99.90;;;;;;6225268;23;20190;-81
2021/01/02 18:37:19;;;;;;;13.10;9.50;;;3.40;99.90;;;;;;6223121;23;20198;-81
2021/01/02 18:39:45;;;;;;;12.52;11.32;;;3.40;99.90;;;;;;6224772;23;20182;-81
2021/01/02 18:42:11;;;;;;;13.23;9.32;;;3.40;99.90;;;;;;6227588;23;20182;-81
2021/01/02 18:44:38;;;;;;;16.33;14.20;;;3.30;99.90;;;;;;6224295;23;20636;-81
2021/01/02 18:47:07;;;;;;;15.30;12.95;;;3.30;99.90;;;;;;6223042;23;20207;-81
2021/01/02 18:49:33;;;;;;;16.25;12.80;;;3.20;99.90;;;;;;6223675;23;20197;-81
2021/01/02 18:52:03;;;;;;;14.77;10.13;;;3.30;99.90;;;;;;6221838;23;20186;-81
2021/01/02 18:54:30;;;;;;;11.95;10.50;;;3.30;99.90;;;;;;6222304;23;20182;-81
2021/01/02 18:56:56;;;;;;;14.18;12.77;;;3.30;99.90;;;;;;6222359;23;20225;-81
2021/01/02 18:59:23;;;;;;;13.65;12.25;;;3.30;99.90;;;;;;6222126;23;20196;-81
2021/01/02 19:01:51;;;;;;;18.25;11.63;;;3.20;99.90;;;;;;6221822;23;20669;-81
2021/01/02 19:04:20;;;;;;;13.95;11.25;;;3.30;99.90;;;;;;6224656;23;20260;-81
2021/01/02 19:06:52;;;;;;;14.07;11.15;;;3.20;99.90;;;;;;6224531;23;20539;-80
2021/01/02 19:09:18;;;;;;;13.38;12.00;;;3.10;99.90;;;;;;6222871;23;20772;-81
2021/01/02 19:11:45;;;;;;;13.57;11.05;;;3.00;99.90;;;;;;6221564;23;20181;-80
2021/01/02 19:14:11;;;;;;;20.38;14.18;;;3.00;99.90;;;;;;6221417;23;20200;-81
2021/01/02 19:16:37;;;;;;;14.00;12.60;;;3.10;99.90;;;;;;6220958;23;20198;-81
2021/01/02 19:19:05;;;;;;;13.50;12.00;;;3.20;99.90;;;;;;6221437;23;20189;-81
2021/01/02 19:21:37;;;;;;;17.73;13.40;;;3.20;99.90;;;;;;6220309;23;20189;-81
2021/01/02 19:24:04;;;;;;;14.60;13.05;;;3.30;99.90;;;;;;6221714;23;20193;-81
2021/01/02 19:26:31;;;;;;;17.38;13.48;;;3.20;99.90;;;;;;6221555;23;20215;-79
2021/01/02 19:28:58;;;;;;;14.43;12.93;;;3.20;99.90;;;;;;6221755;23;20182;-79
2021/01/02 19:31:26;;;;;;;18.17;13.15;;;3.10;99.90;;;;;;6221520;23;20630;-79
2021/01/02 19:33:53;;;;;;;18.85;13.15;;;3.10;99.90;;;;;;6223034;23;20186;-79
2021/01/02 19:36:28;;;;;;;15.10;12.18;;;3.20;99.90;;;;;;6222833;23;20178;-79
2021/01/02 19:38:55;;;;;;;14.65;11.88;;;3.10;99.90;;;;;;6222303;23;20162;-82
2021/01/02 19:41:22;;;;;;;14.55;12.68;;;3.10;99.90;;;;;;6221253;23;20524;-82
2021/01/02 19:43:48;;;;;;;13.48;10.60;;;3.20;99.90;;;;;;6220978;23;20185;-82
2021/01/02 19:46:14;;;;;;;16.15;12.77;;;3.20;99.90;;;;;;6220740;23;20209;-82
2021/01/02 19:48:40;;;;;;;15.15;12.27;;;3.10;99.90;;;;;;6221045;23;20181;-82
2021/01/02 19:51:07;;;;;;;15.32;13.00;;;3.10;99.90;;;;;;6220813;23;20182;-82
2021/01/02 19:53:33;;;;;;;20.63;11.88;;;3.10;99.90;;;;;;6220748;23;20197;-82
2021/01/02 19:56:00;;;;;;;17.50;13.15;;;3.10;99.90;;;;;;6222338;23;20178;-83
2021/01/02 19:58:26;;;;;;;16.48;13.43;;;3.00;99.90;;;;;;6220915;23;20204;-80
2021/01/02 20:00:52;;;;;;;16.55;14.75;;;3.00;99.90;;;;;;6222153;23;20236;-83
2021/01/02 20:03:18;;;;;;;17.95;13.43;;;3.10;99.90;;;;;;6221491;23;20183;-80
2021/01/02 20:05:44;;;;;;;17.00;13.70;;;3.20;99.90;;;;;;6221291;23;20693;-81
2021/01/02 20:08:11;;;;;;;16.55;12.40;;;3.20;99.90;;;;;;6221035;23;20211;-80
2021/01/02 20:10:37;;;;;;;17.42;13.77;;;3.10;99.90;;;;;;6221707;23;20181;-81
2021/01/02 20:13:04;;;;;;;15.05;13.48;;;3.20;99.90;;;;;;6220911;23;20197;-81
2021/01/02 20:15:30;;;;;;;14.98;13.48;;;3.10;99.90;;;;;;6221815;23;20174;-79
2021/01/02 20:17:56;;;;;;;16.38;14.65;;;3.10;99.90;;;;;;6221247;23;20202;-81
2021/01/02 20:20:22;;;;;;;16.20;14.50;;;3.10;99.90;;;;;;6221167;23;20188;-80
2021/01/02 20:22:48;;;;;;;17.58;15.77;;;3.10;99.90;;;;;;6221285;23;20558;-80
2021/01/02 20:25:15;;;;;;;16.08;13.07;;;3.10;99.90;;;;;;6222981;23;20182;-81
2021/01/02 20:27:42;;;;;;;17.00;13.55;;;3.10;99.90;;;;;;6222285;23;20252;-83
2021/01/02 20:30:11;;;;;;;17.77;14.85;;;3.00;99.90;;;;;;6222392;23;20209;-80
2021/01/02 20:32:37;;;;;;;16.50;13.18;;;3.10;99.90;;;;;;6222698;23;20178;-81
2021/01/02 20:35:04;;;;;;;13.27;11.88;;;3.10;99.90;;;;;;6223028;23;20187;-81
2021/01/02 20:37:30;;;;;;;13.27;11.63;;;3.10;99.90;;;;;;6222153;23;20777;-81
2021/01/02 20:39:57;;;;;;;13.05;11.75;;;3.10;99.90;;;;;;6222056;23;20181;-82
2021/01/02 20:42:24;;;;;;;15.90;13.32;;;3.00;99.90;;;;;;6222603;23;20185;-80
2021/01/02 20:44:51;;;;;;;17.73;13.32;;;3.00;99.90;;;;;;6223001;23;20182;-80
2021/01/02 20:47:19;;;;;;;24.73;14.63;;;3.00;99.90;;;;;;6222886;23;20208;-81
2021/01/02 20:49:45;;;;;;;17.27;13.63;;;3.00;99.90;;;;;;6222409;23;20182;-81
2021/01/02 20:52:14;;;;;;;18.50;13.93;;;2.90;99.90;;;;;;6221878;23;20233;-81
2021/01/02 20:54:42;;;;;;;17.83;15.23;;;2.90;99.90;;;;;;6222850;23;20231;-80
2021/01/02 20:57:08;;;;;;;19.63;14.18;;;3.00;99.90;;;;;;6222922;23;20722;-81
2021/01/02 20:59:34;;;;;;;16.05;12.55;;;3.00;99.90;;;;;;6222222;23;20182;-81
2021/01/02 21:02:03;;;;;;;18.95;14.15;;;2.90;99.90;;;;;;6222623;23;20711;-80
2021/01/02 21:04:34;;;;;;;15.15;11.77;;;2.90;99.90;;;;;;6222481;23;20182;-83
2021/01/02 21:07:03;;;;;;;14.68;11.48;;;2.90;99.90;;;;;;6222498;23;20291;-81
2021/01/02 21:09:31;;;;;;;16.77;12.02;;;2.90;99.90;;;;;;6222452;23;20302;-80
2021/01/02 21:11:58;;;;;;;17.50;12.80;;;2.90;99.90;;;;;;6222773;23;20184;-80
2021/01/02 21:14:28;;;;;;;18.48;13.63;;;2.90;99.90;;;;;;6221995;23;20213;-80
2021/01/02 21:16:55;;;;;;;17.10;13.52;;;3.00;99.90;;;;;;6223554;23;20194;-83
2021/01/02 21:19:24;;;;;;;20.70;13.80;;;3.00;99.90;;;;;;6223707;23;20182;-83
2021/01/02 21:21:52;;;;;;;18.38;12.95;;;3.00;99.90;;;;;;6222883;23;20187;-81
2021/01/02 21:24:21;;;;;;;18.40;14.68;;;3.00;99.90;;;;;;6222886;23;20182;-80
2021/01/02 21:26:49;;;;;;;18.15;13.93;;;3.10;99.90;;;;;;6224163;23;20202;-83
2021/01/02 21:29:19;;;;;;;14.90;12.00;;;3.00;99.90;;;;;;6223516;23;20178;-81
2021/01/02 21:31:47;;;;;;;21.10;15.27;;;3.00;99.90;;;;;;6224729;23;20227;-81
2021/01/02 21:34:18;;;;;;;16.27;14.02;;;3.10;99.90;;;;;;6224698;23;20265;-80
2021/01/02 21:36:48;;;;;;;17.63;13.45;;;3.00;99.90;;;;;;6224489;23;20198;-82
2021/01/02 21:39:15;;;;;;;19.00;13.05;;;3.00;99.90;;;;;;6224149;23;20173;-82
2021/01/02 21:41:41;;;;;;;17.67;13.57;;;2.90;99.90;;;;;;6223883;23;20182;-81
2021/01/02 21:44:09;;;;;;;20.98;14.43;;;3.00;99.90;;;;;;6229032;23;20182;-81
2021/01/02 21:46:36;;;;;;;18.67;14.90;;;2.90;99.90;;;;;;6231061;23;20541;-80
2021/01/02 21:49:03;;;;;;;21.42;15.07;;;3.00;99.90;;;;;;6230846;23;20188;-80
2021/01/02 21:51:32;;;;;;;20.42;14.02;;;3.00;99.90;;;;;;6230578;23;20178;-80
2021/01/02 21:53:58;;;;;;;22.70;17.45;;;3.00;99.90;;;;;;6230560;23;20212;-81
2021/01/02 21:56:27;;;;;;;20.55;15.57;;;3.00;99.90;;;;;;6229816;23;20174;-81
2021/01/02 21:58:53;;;;;;;16.05;13.88;;;2.90;99.90;;;;;;6231467;23;20186;-82
2021/01/02 22:01:23;;;;;;;19.38;13.85;;;2.90;99.90;;;;;;6231829;23;20188;-81
2021/01/02 22:03:49;;;;;;;24.88;18.23;;;2.90;99.90;;;;;;6230815;23;20189;-81
2021/01/02 22:06:17;;;;;;;21.70;16.42;;;3.00;99.90;;;;;;6228058;23;20271;-80
2021/01/02 22:08:43;;;;;;;23.33;14.88;;;3.00;99.90;;;;;;6225324;23;20537;-81
2021/01/02 22:11:09;;;;;;;17.55;14.35;;;3.10;99.90;;;;;;6225914;23;20181;-80
2021/01/02 22:13:36;;;;;;;18.77;15.32;;;3.10;99.90;;;;;;6225188;23;20208;-80
2021/01/02 22:16:03;;;;;;;20.63;15.57;;;3.10;99.90;;;;;;6225791;23;20195;-81
2021/01/02 22:18:29;;;;;;;22.42;13.55;;;3.10;99.90;;;;;;6223530;23;20206;-81
2021/01/02 22:20:56;;;;;;;20.35;15.05;;;3.00;99.90;;;;;;6227270;23;20201;-80
2021/01/02 22:23:22;;;;;;;20.67;15.18;;;3.00;99.90;;;;;;6226155;23;20178;-81
2021/01/02 22:25:48;;;;;;;22.98;16.73;;;3.00;99.90;;;;;;6227223;23;20201;-81
2021/01/02 22:28:15;;;;;;;13.85;12.02;;;3.00;99.90;;;;;;6226933;23;20201;-80
2021/01/02 22:30:42;;;;;;;13.30;11.80;;;2.90;99.90;;;;;;6225909;23;20177;-79
2021/01/02 22:33:08;;;;;;;14.63;12.82;;;2.70;99.90;;;;;;6226816;23;20182;-80
2021/01/02 22:35:34;;;;;;;12.00;10.70;;;2.80;99.90;;;;;;6228297;23;20182;-80
2021/01/02 22:38:00;;;;;;;11.70;10.50;;;2.80;99.90;;;;;;6226999;23;20258;-81
2021/01/02 22:40:26;;;;;;;11.93;10.25;;;2.80;99.90;;;;;;6227884;23;20545;-81
2021/01/02 22:42:52;;;;;;;12.50;10.95;;;2.90;99.90;;;;;;6226864;23;20196;-81
2021/01/02 22:45:19;;;;;;;13.85;11.20;;;2.80;99.90;;;;;;6226269;23;20182;-80
2021/01/02 22:47:46;;;;;;;10.60;9.30;;;2.80;99.90;;;;;;6225798;23;20544;-80
2021/01/02 22:50:13;;;;;;;15.32;12.63;;;2.80;99.90;;;;;;6225907;23;20189;-81
2021/01/02 22:52:39;;;;;;;12.18;10.90;;;2.90;99.90;;;;;;6226562;23;20240;-80
2021/01/02 22:55:07;;;;;;;12.88;11.23;;;2.80;99.90;;;;;;6226074;23;20182;-81
2021/01/02 22:57:33;;;;;;;13.57;9.95;;;2.80;99.90;;;;;;6226380;23;20663;-81
2021/01/02 22:59:59;;;;;;;14.63;11.52;;;2.60;99.90;;;;;;6227502;23;20182;-81
2021/01/02 23:02:25;;;;;;;13.38;11.43;;;2.60;99.90;;;;;;6227724;23;20178;-81
2021/01/02 23:04:52;;;;;;;12.90;11.65;;;2.60;99.90;;;;;;6227025;23;20184;-81
2021/01/02 23:07:37;;;;;;;12.90;9.63;;;2.60;99.90;;;;;;6225676;23;20212;-81
2021/01/02 23:10:04;;;;;;;10.80;9.57;;;2.60;99.90;;;;;;6226872;23;20186;-81
2021/01/02 23:12:30;;;;;;;14.10;10.13;;;2.60;99.90;;;;;;6225225;23;20178;-81
2021/01/02 23:14:57;;;;;;;13.80;9.95;;;2.60;99.90;;;;;;6226896;23;20165;-81
2021/01/02 23:17:23;;;;;;;13.27;11.25;;;2.50;99.90;;;;;;6226889;23;20204;-81
2021/01/02 23:19:49;;;;;;;11.70;10.50;;;2.50;99.90;;;;;;6226989;23;20182;-80
2021/01/02 23:22:17;;;;;;;12.35;11.05;;;2.40;99.90;;;;;;6227531;23;20178;-80
2021/01/02 23:24:45;;;;;;;13.40;11.63;;;2.30;99.90;;;;;;6228473;23;20189;-82
2021/01/02 23:27:13;;;;;;;15.00;10.55;;;2.30;99.90;;;;;;6229597;23;20206;-81
2021/01/02 23:29:40;;;;;;;15.02;11.52;;;2.30;99.90;;;;;;6228238;23;20181;-80
2021/01/02 23:32:09;;;;;;;13.15;11.63;;;2.30;99.90;;;;;;6222347;23;20178;-80
2021/01/02 23:34:35;;;;;;;14.70;12.15;;;2.20;99.90;;;;;;6222636;23;20189;-80
2021/01/02 23:37:03;;;;;;;12.75;11.48;;;2.20;99.90;;;;;;6222903;23;20205;-80
2021/01/02 23:39:30;;;;;;;13.40;10.82;;;2.10;99.90;;;;;;6222593;23;20185;-80
2021/01/02 23:41:59;;;;;;;10.60;9.48;;;2.20;99.90;;;;;;6222626;23;20185;-80
2021/01/02 23:44:27;;;;;;;12.65;11.38;;;2.20;99.90;;;;;;6221495;23;20177;-80
2021/01/02 23:46:55;;;;;;;13.02;8.95;;;2.30;99.90;;;;;;6222094;23;20743;-80
2021/01/02 23:49:21;;;;;;;12.45;10.35;;;2.30;99.90;;;;;;6221756;23;20178;-79
2021/01/02 23:51:47;;;;;;;12.35;10.15;;;2.30;99.90;;;;;;6221081;23;20178;-79
2021/01/02 23:54:13;;;;;;;9.77;8.77;;;2.20;99.90;;;;;;6222238;23;20186;-79
2021/01/02 23:56:40;;;;;;;11.35;9.40;;;2.20;99.90;;;;;;6221204;23;20743;-79
2021/01/02 23:59:07;;;;;;;11.48;8.63;;;2.20;99.90;;;;;;6222065;23;20178;-79
